Main page
METAR-TAF:

METAR-TAF

Airports :

Zaragoza Airport

Zaragoza, Spain

latitude: 41-40N, longitude: 001-01W, elevation: 263 m

Current weather observation

The report was made 23 minutes ago, at 05:30 UTC
Wind 7 kt from the West
Temperature 19°C
Humidity 73%
Pressure 1018 hPa
Visibility 10 km or more
no clouds below 1500 m and no cumulonimbus

METAR: LEZG 230530Z 27007KT CAVOK 19/14 Q1018

Time: 07:53 (05:53 UTC)

Forecast

The report was made 53 minutes ago, at 05:00 UTC
Forecast valid from 23 at 06 UTC to 24 at 06 UTC
Wind 12 kt from the West/Northwest
Visibility 10 km or more
Few clouds at a height of 5000 ft
Becoming
from 23 at 10 UTC to 23 at 12 UTC
Wind 7 kt from the East

TAF: LEZG 230500Z 2306/2406 30012KT 9999 FEW050 TX35/2314Z TN20/2405Z BECMG 2310/2312 09007KT

Weather observations and forecasts of more than 4000 airports (METAR and TAF reports).

The available stations are represented by yellow and red dots on the map.

Hover mouse over dot to see the name of the station.

Then click to see weather observations and forecasts.

To change the map : click on the green buttons with a black cross to zoom in, on the green button with a dash to zoom out, or on the green arrows for adjacent maps.


METAR-TAF: